»·PEaware :: N314PW KHND-KIFP

N314PW :: KHND-KIFP

FLIGHT INFORMATION

Flight Status: Arrived
Operator: Privately registered:
United States
More flights under this callsign
Pilot: Todd P. (5750)
Aircraft: PIPER PA-28R-201 ARROW
(P28R)
More flights by this aircraft type
Origin: KHND Henderson
United States
Destination: KIFP Laughlin/Bullhead Intl
United States
More flights between these airports :: More routes between these airports
Route: + BLD V237 EED
File this flight plan on PilotEdge
Remarks:
Altitude:
(Current/Filed)
9,000ft
Speed:
(Current/Filed)
130kts
Departed: 05-Jun-16 09:00 AM
Arrived: 05-Jun-16 09:29 AM
Distance/Time
Traveled:
57nm/0:29
Distance/Time
To Go:
Arrived

Flight Plot

Page will automatically refresh every two minutes.

Flight plan parsing failed; only flown route is shown


Map Options




Map Legend


Flown Route
Filed Route
Departure Airport
Arrival Airport
Navaid (VOR, NDB)
Fix

Horizontal Profiles

Position Reports

Time Latitude Longitude Heading Altitude Ground
Speed
05-Jun-16 08:27 35.968183 -115.137691 125 2495ft 0kts
05-Jun-16 08:28 35.968183 -115.137691 125 2495ft 0kts
05-Jun-16 08:29 35.968183 -115.137691 125 2495ft 0kts
05-Jun-16 08:30 35.968183 -115.137691 125 2495ft 0kts
05-Jun-16 08:31 35.968183 -115.137691 125 2495ft 0kts
05-Jun-16 08:32 35.968183 -115.137691 125 2495ft 0kts
05-Jun-16 08:33 35.968183 -115.137691 125 2495ft 0kts
05-Jun-16 08:34 35.968183 -115.137691 125 2495ft 0kts
05-Jun-16 08:35 35.968183 -115.137691 125 2495ft 0kts
05-Jun-16 08:36 35.968183 -115.137691 125 2495ft 0kts
05-Jun-16 08:37 35.968183 -115.137691 125 2495ft 0kts
05-Jun-16 08:38 35.968183 -115.137691 125 2495ft 0kts
05-Jun-16 08:39 35.968183 -115.137691 125 2495ft 0kts
05-Jun-16 08:40 35.968183 -115.137691 125 2495ft 0kts
05-Jun-16 08:41 35.968183 -115.137691 125 2495ft 0kts
05-Jun-16 08:42 35.968183 -115.137691 125 2495ft 0kts
05-Jun-16 08:43 35.968183 -115.137691 125 2495ft 0kts
05-Jun-16 08:44 35.968183 -115.137691 125 2495ft 0kts
05-Jun-16 08:45 35.968183 -115.137691 125 2495ft 0kts
05-Jun-16 08:46 35.968183 -115.137691 125 2495ft 0kts
05-Jun-16 08:47 35.968183 -115.137691 125 2495ft 0kts
05-Jun-16 08:48 35.968183 -115.137691 125 2495ft 0kts
05-Jun-16 08:49 35.968183 -115.137691 125 2495ft 0kts
05-Jun-16 08:50 35.969601 -115.137005 359 2496ft 17kts
05-Jun-16 08:51 35.973769 -115.136450 354 2496ft 20kts
05-Jun-16 08:52 35.980119 -115.136356 347 2496ft 18kts
05-Jun-16 08:53 35.980835 -115.136116 106 2496ft 0kts
05-Jun-16 08:54 35.980835 -115.136116 106 2496ft 0kts
05-Jun-16 08:55 35.980835 -115.136116 106 2496ft 0kts
05-Jun-16 08:56 35.980835 -115.136116 106 2496ft 0kts
05-Jun-16 08:57 35.979614 -115.135318 181 2496ft 42kts
05-Jun-16 08:58 35.958328 -115.136937 193 3251ft 80kts
05-Jun-16 08:59 35.937726 -115.145744 193 4241ft 80kts
05-Jun-16 09:00 35.915484 -115.150390 191 5179ft 81kts
05-Jun-16 09:01 35.897375 -115.154070 197 5930ft 78kts
05-Jun-16 09:02 35.876108 -115.157922 191 6773ft 76kts
05-Jun-16 09:03 35.852064 -115.162741 192 7452ft 92kts
05-Jun-16 09:04 35.827717 -115.167968 192 8126ft 87kts
05-Jun-16 09:05 35.804098 -115.171325 159 8718ft 91kts
05-Jun-16 09:06 35.786985 -115.142002 132 9006ft 125kts
05-Jun-16 09:07 35.764027 -115.101938 132 8997ft 156kts
05-Jun-16 09:08 35.737719 -115.057719 132 8990ft 166kts
05-Jun-16 09:09 35.709638 -115.011345 132 8986ft 170kts
05-Jun-16 09:10 35.681395 -114.965364 132 8983ft 168kts
05-Jun-16 09:11 35.653626 -114.920418 132 9100ft 166kts
05-Jun-16 09:12 35.625600 -114.875396 133 9089ft 168kts
05-Jun-16 09:13 35.597304 -114.829712 133 9075ft 168kts
05-Jun-16 09:14 35.569074 -114.784031 132 9055ft 169kts
05-Jun-16 09:15 35.540753 -114.738258 132 8913ft 171kts
05-Jun-16 09:16 35.510466 -114.690748 132 8217ft 178kts
05-Jun-16 09:17 35.472525 -114.656334 173 7506ft 171kts
05-Jun-16 09:18 35.428321 -114.637271 160 6801ft 169kts
05-Jun-16 09:19 35.384113 -114.613695 158 5742ft 180kts
05-Jun-16 09:20 35.337810 -114.588893 157 4541ft 181kts
05-Jun-16 09:21 35.292015 -114.569689 190 3391ft 170kts
05-Jun-16 09:22 35.254942 -114.567021 170 2697ft 117kts
05-Jun-16 09:23 35.224335 -114.564544 174 1976ft 103kts
05-Jun-16 09:24 35.197549 -114.562530 179 1821ft 88kts
05-Jun-16 09:25 35.173823 -114.560542 183 1409ft 96kts
05-Jun-16 09:26 35.156695 -114.559439 177 704ft 16kts

Navigation Log

Ident Type
Flight plan parsing failed, navigation log unavailable